createdAt,value
2018-02-03T00:02:31.792Z,42.23
2018-02-03T00:05:12.836Z,68.33
2018-02-03T00:07:45.137Z,34.27
2018-02-03T00:10:16.992Z,76.53
2018-02-03T00:12:48.009Z,98.30
2018-02-03T00:15:32.502Z,83.57
2018-02-03T00:18:07.428Z,56.70
2018-02-03T00:20:48.741Z,57.87
2018-02-03T00:23:18.887Z,51.57
2018-02-03T00:25:48.580Z,126.67
2018-02-03T00:28:18.209Z,129.83
2018-02-03T00:30:49.143Z,116.63
2018-02-03T00:33:19.309Z,141.50
2018-02-03T00:35:49.110Z,56.43
2018-02-03T00:38:21.064Z,47.50
2018-02-03T00:40:52.341Z,61.67
2018-02-03T00:43:23.426Z,48.27
2018-02-03T00:45:52.795Z,66.50
2018-02-03T00:48:23.211Z,51.20
2018-02-03T00:50:53.729Z,56.87
2018-02-03T00:53:23.146Z,105.03
2018-02-03T00:55:57.993Z,51.57
2018-02-03T00:58:27.675Z,34.97
2018-02-03T01:01:05.289Z,94.80
2018-02-03T01:03:47.440Z,76.20
2018-02-03T01:06:37.622Z,139.17
2018-02-03T01:09:07.472Z,108.03
2018-02-03T01:11:39.571Z,50.60
2018-02-03T01:14:10.284Z,38.27
2018-02-03T01:16:50.963Z,31.87
2018-02-03T01:19:29.704Z,49.63
2018-02-03T01:22:01.128Z,46.40
2018-02-03T01:24:31.378Z,69.50
2018-02-03T01:27:02.214Z,85.87
2018-02-03T01:29:31.806Z,53.70
2018-02-03T01:32:01.602Z,117.97
2018-02-03T01:34:31.499Z,47.67
2018-02-03T01:37:01.568Z,23.00
2018-02-03T01:39:41.745Z,49.30
2018-02-03T01:42:26.161Z,37.33
2018-02-03T01:44:55.759Z,74.37
2018-02-03T01:47:25.594Z,37.43
2018-02-03T01:50:04.060Z,51.23
2018-02-03T01:52:34.309Z,38.93
2018-02-03T01:55:06.058Z,56.37
2018-02-03T01:57:38.454Z,56.90
2018-02-03T02:00:09.438Z,61.63
2018-02-03T02:02:42.855Z,34.03
2018-02-03T02:05:12.306Z,35.60
2018-02-03T02:07:45.221Z,75.60
2018-02-03T02:10:14.554Z,104.80
2018-02-03T02:12:49.319Z,39.10
2018-02-03T02:15:18.899Z,35.73
2018-02-03T02:17:48.819Z,62.90
2018-02-03T02:20:24.910Z,72.37
2018-02-03T02:23:01.775Z,31.80
2018-02-03T02:25:36.352Z,37.67
2018-02-03T02:28:08.024Z,77.07
2018-02-03T02:30:37.611Z,103.97
2018-02-03T02:33:07.059Z,43.77
2018-02-03T02:35:36.468Z,33.03
2018-02-03T02:38:06.998Z,25.53
2018-02-03T02:40:46.607Z,37.07
2018-02-03T02:43:31.790Z,35.73
2018-02-03T02:46:03.472Z,37.60
2018-02-03T02:48:34.252Z,41.93
2018-02-03T02:51:05.408Z,49.97
2018-02-03T02:53:38.534Z,41.40
2018-02-03T02:59:11.870Z,56.93
2018-02-03T03:01:41.857Z,32.57
2018-02-03T03:04:12.140Z,29.80
2018-02-03T03:06:41.505Z,32.10
2018-02-03T03:09:10.809Z,37.67
2018-02-03T03:11:40.130Z,45.13
2018-02-03T03:14:18.787Z,37.97
2018-02-03T03:19:45.663Z,26.23
2018-02-03T03:22:15.592Z,33.50
2018-02-03T03:24:45.482Z,25.37
2018-02-03T03:27:14.919Z,46.37
2018-02-03T03:29:44.491Z,22.50
2018-02-03T03:32:13.988Z,62.93
2018-02-03T03:34:43.524Z,34.17
2018-02-03T03:37:34.361Z,31.27
2018-02-03T03:40:11.823Z,51.20
2018-02-03T03:42:41.292Z,42.40
2018-02-03T03:45:11.597Z,52.83
2018-02-03T03:47:41.088Z,38.17
2018-02-03T03:50:10.434Z,30.33
2018-02-03T03:52:41.086Z,31.60
2018-02-03T03:55:11.044Z,59.97
2018-02-03T03:57:41.022Z,31.10
2018-02-03T04:00:10.317Z,26.07
2018-02-03T04:02:40.700Z,24.20
2018-02-03T04:05:11.050Z,24.27
2018-02-03T04:07:41.965Z,32.47
2018-02-03T04:10:11.639Z,28.83
2018-02-03T04:12:40.849Z,39.13
2018-02-03T04:15:10.635Z,35.37
2018-02-03T04:17:40.488Z,38.07
2018-02-03T04:20:09.931Z,41.90
2018-02-03T04:22:40.518Z,36.43
2018-02-03T04:25:11.994Z,36.67
2018-02-03T04:27:41.876Z,23.13
2018-02-03T04:30:12.696Z,41.70
2018-02-03T04:32:44.745Z,38.00
2018-02-03T04:35:29.053Z,39.00
2018-02-03T04:38:07.727Z,37.03
2018-02-03T04:40:38.302Z,24.33
2018-02-03T04:43:08.788Z,31.77
2018-02-03T04:45:38.505Z,31.70
2018-02-03T04:48:09.128Z,33.87
2018-02-03T04:50:39.564Z,31.03
2018-02-03T04:53:10.649Z,43.80
2018-02-03T04:55:41.378Z,31.67
2018-02-03T04:58:11.746Z,44.07
2018-02-03T05:00:43.768Z,41.93
2018-02-03T05:03:14.136Z,33.43
2018-02-03T05:05:43.608Z,39.57
2018-02-03T05:08:13.757Z,31.30
2018-02-03T05:10:44.227Z,43.47
2018-02-03T05:13:16.845Z,36.93
2018-02-03T05:15:47.654Z,39.10
2018-02-03T05:18:19.176Z,35.03
2018-02-03T05:20:49.253Z,38.63
2018-02-03T05:23:18.781Z,54.87
2018-02-03T05:25:49.070Z,40.77
2018-02-03T05:28:18.532Z,40.50
2018-02-03T05:30:48.114Z,37.77
2018-02-03T05:33:18.758Z,43.63
2018-02-03T05:35:48.858Z,40.83
2018-02-03T05:38:18.480Z,35.27
2018-02-03T05:40:48.138Z,33.97
2018-02-03T05:43:17.807Z,51.53
2018-02-03T05:45:47.938Z,55.00
2018-02-03T05:48:17.483Z,45.77
2018-02-03T05:50:47.857Z,49.57
2018-02-03T05:53:18.882Z,38.10
2018-02-03T05:55:48.438Z,31.20
2018-02-03T05:58:17.886Z,46.23
2018-02-03T06:00:47.765Z,38.30
2018-02-03T06:03:17.296Z,29.80
2018-02-03T06:05:46.846Z,50.27
2018-02-03T06:08:16.800Z,35.53
2018-02-03T06:10:46.257Z,45.23
2018-02-03T06:13:16.591Z,38.97
2018-02-03T06:15:47.101Z,34.83
2018-02-03T06:18:18.408Z,39.37
2018-02-03T06:20:47.894Z,35.97
2018-02-03T06:23:17.433Z,56.10
2018-02-03T06:25:47.454Z,40.23
2018-02-03T06:28:17.700Z,32.37
2018-02-03T06:30:48.145Z,42.37
2018-02-03T06:33:18.066Z,41.57
2018-02-03T06:35:47.555Z,38.13
2018-02-03T06:38:17.884Z,40.80
2018-02-03T06:40:47.765Z,43.20
2018-02-03T06:43:17.353Z,36.13
2018-02-03T06:45:46.984Z,37.93
2018-02-03T06:48:17.393Z,54.00
2018-02-03T06:50:47.298Z,45.23
2018-02-03T06:53:16.763Z,52.53
2018-02-03T06:55:46.787Z,52.40
2018-02-03T06:58:16.227Z,52.53
2018-02-03T07:00:55.994Z,49.63
2018-02-03T07:03:31.321Z,47.23
2018-02-03T07:06:06.507Z,44.33
2018-02-03T07:08:36.482Z,45.67
2018-02-03T07:11:06.290Z,47.90
2018-02-03T07:13:36.981Z,56.60
2018-02-03T07:16:06.590Z,39.90
2018-02-03T07:18:36.291Z,34.53
2018-02-03T07:21:06.570Z,64.63
2018-02-03T07:23:36.147Z,60.93
2018-02-03T07:26:05.719Z,32.57
2018-02-03T07:28:35.226Z,49.50
2018-02-03T07:31:05.305Z,47.47
2018-02-03T07:33:35.045Z,52.50
2018-02-03T07:36:05.325Z,38.37
2018-02-03T07:38:35.326Z,33.20
2018-02-03T07:41:04.902Z,53.57
2018-02-03T07:43:34.381Z,40.70
2018-02-03T07:46:04.572Z,34.93
2018-02-03T07:48:34.125Z,48.80
2018-02-03T07:51:04.680Z,40.97
2018-02-03T07:53:34.998Z,37.93
2018-02-03T07:56:04.578Z,71.07
2018-02-03T07:58:34.855Z,38.50
2018-02-03T08:01:05.221Z,41.67
2018-02-03T08:03:35.024Z,42.00
2018-02-03T08:06:04.614Z,49.63
2018-02-03T08:08:34.238Z,63.57
2018-02-03T08:11:07.424Z,64.10
2018-02-03T08:13:38.699Z,61.70
2018-02-03T08:16:09.314Z,37.43
2018-02-03T08:18:39.268Z,42.73
2018-02-03T08:21:09.179Z,37.27
2018-02-03T08:23:38.656Z,34.67
2018-02-03T08:26:09.597Z,43.27
2018-02-03T08:28:40.100Z,40.00
2018-02-03T08:31:10.044Z,49.80
2018-02-03T08:33:40.639Z,37.27
2018-02-03T08:36:12.153Z,58.07
2018-02-03T08:38:44.828Z,50.97
2018-02-03T08:41:17.433Z,40.87
2018-02-03T08:43:51.460Z,47.97
2018-02-03T08:46:40.692Z,41.00
2018-02-03T08:49:10.884Z,54.40
2018-02-03T08:51:56.727Z,48.67
2018-02-03T08:54:26.661Z,57.27
2018-02-03T08:56:59.589Z,55.00
2018-02-03T08:59:30.794Z,54.73
2018-02-03T09:02:00.571Z,66.77
2018-02-03T09:04:30.504Z,53.17
2018-02-03T09:07:13.137Z,84.43
2018-02-03T09:09:42.664Z,60.37
2018-02-03T09:12:15.266Z,59.73
2018-02-03T09:14:46.320Z,68.50
2018-02-03T09:17:16.253Z,67.90
2018-02-03T09:19:45.806Z,70.43
2018-02-03T09:22:15.776Z,66.70
2018-02-03T09:24:45.340Z,82.57
2018-02-03T09:27:15.046Z,62.03
2018-02-03T09:29:46.029Z,60.03
2018-02-03T09:32:15.569Z,58.97
2018-02-03T09:34:46.736Z,69.27
2018-02-03T09:37:22.889Z,60.63
2018-02-03T09:39:53.405Z,54.27
2018-02-03T09:42:23.084Z,77.30
2018-02-03T09:44:53.703Z,62.10
2018-02-03T09:47:23.436Z,80.73
2018-02-03T09:49:53.191Z,65.37
2018-02-03T09:52:24.818Z,74.57
2018-02-03T09:54:54.416Z,62.63
2018-02-03T09:57:24.022Z,71.07
2018-02-03T09:59:54.222Z,65.13
2018-02-03T10:02:23.837Z,62.43
2018-02-03T10:04:55.024Z,57.33
2018-02-03T10:07:40.242Z,67.33
2018-02-03T10:10:09.829Z,51.70
2018-02-03T10:12:39.592Z,71.20
2018-02-03T10:15:09.543Z,62.30
2018-02-03T10:17:39.937Z,88.80
2018-02-03T10:20:09.624Z,75.37
2018-02-03T10:22:40.928Z,55.20
2018-02-03T10:25:11.151Z,56.97
2018-02-03T10:27:44.204Z,52.53
2018-02-03T10:30:14.398Z,48.93
2018-02-03T10:32:45.561Z,48.20
2018-02-03T10:35:19.668Z,54.17
2018-02-03T10:37:49.160Z,49.37
2018-02-03T10:40:21.941Z,46.93
2018-02-03T10:42:58.407Z,54.53
2018-02-03T10:45:57.671Z,36.37
2018-02-03T10:48:40.172Z,47.63
2018-02-03T10:51:10.479Z,44.57
2018-02-03T10:53:40.138Z,49.63
2018-02-03T10:56:15.103Z,40.13
2018-02-03T10:58:44.834Z,40.37
2018-02-03T11:01:15.896Z,38.57
2018-02-03T11:03:50.705Z,42.43
2018-02-03T11:06:20.824Z,45.10
2018-02-03T11:08:50.513Z,41.83
2018-02-03T11:11:20.583Z,46.27
2018-02-03T11:13:54.695Z,51.53
2018-02-03T11:16:25.807Z,43.60
2018-02-03T11:18:56.086Z,39.30
2018-02-03T11:21:25.800Z,54.93
2018-02-03T11:24:03.339Z,49.27
2018-02-03T11:26:34.491Z,46.03
2018-02-03T11:29:04.718Z,40.97
2018-02-03T11:31:34.471Z,52.30
2018-02-03T11:34:04.704Z,37.00
2018-02-03T11:36:34.386Z,47.80
2018-02-03T11:39:04.403Z,30.30
2018-02-03T11:41:38.685Z,41.10
2018-02-03T11:44:08.601Z,51.97
2018-02-03T11:46:39.035Z,30.03
2018-02-03T11:49:11.744Z,35.03
2018-02-03T11:51:41.647Z,34.73
2018-02-03T11:54:11.382Z,42.43
2018-02-03T11:56:55.857Z,30.80
2018-02-03T11:59:26.106Z,50.83
2018-02-03T12:01:56.184Z,50.57
2018-02-03T12:04:26.339Z,39.13
2018-02-03T12:06:56.984Z,18.60
2018-02-03T12:09:28.042Z,28.07
2018-02-03T12:12:00.371Z,27.33
2018-02-03T12:14:39.237Z,23.23
2018-02-03T12:17:11.048Z,28.60
2018-02-03T12:19:41.550Z,32.53
2018-02-03T12:22:11.385Z,39.03
2018-02-03T12:24:41.643Z,29.23
2018-02-03T12:27:12.942Z,23.57
2018-02-03T12:29:43.268Z,23.47
2018-02-03T12:32:13.587Z,27.50
2018-02-03T12:34:44.595Z,25.97
2018-02-03T12:37:17.819Z,28.43
2018-02-03T12:39:47.683Z,36.13
2018-02-03T12:42:17.851Z,30.10
2018-02-03T12:44:49.298Z,77.13
2018-02-03T12:47:19.516Z,29.93
2018-02-03T12:49:49.338Z,29.57
2018-02-03T12:52:31.560Z,32.63
2018-02-03T12:55:01.711Z,18.00
2018-02-03T12:57:34.478Z,21.07
2018-02-03T13:00:05.901Z,22.37
2018-02-03T13:02:35.702Z,23.63
2018-02-03T13:06:24.993Z,14.53
2018-02-03T13:09:02.077Z,10.83
2018-02-03T13:11:32.444Z,11.87
2018-02-03T13:14:02.079Z,10.50
2018-02-03T13:16:49.297Z,10.97
2018-02-03T13:19:22.214Z,19.27
2018-02-03T13:21:52.798Z,13.67
2018-02-03T13:24:24.033Z,12.63
2018-02-03T13:26:54.099Z,24.03
2018-02-03T13:29:24.048Z,50.40
2018-02-03T13:32:00.871Z,21.00
2018-02-03T13:34:31.126Z,25.87
2018-02-03T13:37:08.060Z,15.17
2018-02-03T13:39:48.457Z,19.10
2018-02-03T13:42:21.215Z,32.33
2018-02-03T13:44:50.923Z,23.70
2018-02-03T13:47:20.682Z,25.53
2018-02-03T13:49:52.219Z,61.13
2018-02-03T13:52:21.924Z,37.60
2018-02-03T13:54:51.716Z,26.43
2018-02-03T13:57:21.521Z,30.57
2018-02-03T13:59:51.326Z,136.03
2018-02-03T14:02:21.264Z,50.60
2018-02-03T14:04:51.114Z,33.33
2018-02-03T14:07:22.062Z,33.00
2018-02-03T14:09:53.218Z,37.03
2018-02-03T14:12:24.035Z,66.47
2018-02-03T14:14:53.686Z,51.30
2018-02-03T14:17:26.621Z,50.13
2018-02-03T14:19:57.008Z,24.93
2018-02-03T14:22:26.953Z,23.67
2018-02-03T14:25:01.228Z,33.10
2018-02-03T14:27:31.572Z,19.50
2018-02-03T14:30:01.669Z,35.27
2018-02-03T14:32:31.475Z,14.60
2018-02-03T14:35:01.279Z,34.87
2018-02-03T14:37:31.403Z,52.37
2018-02-03T14:40:01.871Z,29.13
2018-02-03T14:42:31.591Z,18.93
2018-02-03T14:45:01.884Z,18.70
2018-02-03T14:47:31.673Z,16.20
2018-02-03T14:50:08.277Z,17.80
2018-02-03T14:52:38.618Z,24.53
2018-02-03T14:55:09.222Z,31.13
2018-02-03T14:57:39.816Z,24.10
2018-02-03T15:00:10.204Z,15.20
2018-02-03T15:02:41.244Z,52.57
2018-02-03T15:05:11.880Z,31.77
2018-02-03T15:07:41.853Z,25.43
2018-02-03T15:10:11.824Z,22.03
2018-02-03T15:12:44.088Z,49.93
2018-02-03T15:15:14.304Z,22.80
2018-02-03T15:17:44.203Z,25.30
2018-02-03T15:20:27.315Z,138.37
2018-02-03T15:22:58.765Z,67.60
2018-02-03T15:25:28.872Z,58.53
2018-02-03T15:28:02.487Z,25.70
2018-02-03T15:30:38.627Z,31.03
2018-02-03T15:33:15.668Z,25.83
2018-02-03T15:35:46.312Z,39.50
2018-02-03T15:38:16.097Z,30.13
2018-02-03T15:40:46.418Z,32.97
2018-02-03T15:43:16.437Z,66.50
2018-02-03T15:45:46.136Z,57.93
2018-02-03T15:48:21.352Z,74.93
2018-02-03T15:51:00.311Z,28.23
2018-02-03T15:53:33.438Z,83.10
2018-02-03T15:56:03.752Z,37.67
2018-02-03T15:58:35.002Z,30.30
2018-02-03T16:01:07.672Z,36.20
2018-02-03T16:03:38.158Z,15.50
2018-02-03T16:06:20.670Z,33.90
2018-02-03T16:08:50.879Z,46.50
2018-02-03T16:11:23.576Z,21.03
2018-02-03T16:13:56.238Z,61.13
2018-02-03T16:16:25.961Z,33.07
2018-02-03T16:19:03.024Z,19.33
2018-02-03T16:21:34.693Z,17.73
2018-02-03T16:24:16.260Z,18.53
2018-02-03T16:26:53.660Z,23.47
2018-02-03T16:29:28.117Z,21.13
2018-02-03T16:31:58.106Z,11.90
2018-02-03T16:34:28.838Z,23.77
2018-02-03T16:37:02.526Z,90.80
2018-02-03T16:39:32.197Z,20.67
2018-02-03T16:42:01.965Z,17.23
2018-02-03T16:44:35.100Z,23.30
2018-02-03T16:47:05.571Z,22.63
2018-02-03T16:49:36.229Z,19.03
2018-02-03T16:52:23.931Z,17.30
2018-02-03T16:54:58.001Z,21.50
2018-02-03T16:57:28.165Z,47.00
2018-02-03T17:00:04.137Z,42.33
2018-02-03T17:02:35.636Z,16.87
2018-02-03T17:05:05.338Z,20.33
2018-02-03T17:07:36.387Z,27.70
2018-02-03T17:10:06.697Z,39.50
2018-02-03T17:12:37.281Z,61.83
2018-02-03T17:15:07.419Z,42.67
2018-02-03T17:17:38.912Z,44.17
2018-02-03T17:20:12.962Z,35.20
2018-02-03T17:22:55.435Z,35.07
2018-02-03T17:25:25.756Z,25.97
2018-02-03T17:27:55.949Z,39.90
2018-02-03T17:30:30.913Z,37.67
2018-02-03T17:33:03.699Z,41.40
2018-02-03T17:35:38.040Z,41.80
2018-02-03T17:38:13.499Z,91.50
2018-02-03T17:40:43.268Z,29.13
2018-02-03T17:43:33.353Z,32.13
2018-02-03T17:46:11.411Z,21.50
2018-02-03T17:48:45.722Z,18.37
2018-02-03T17:51:18.727Z,33.67
2018-02-03T17:53:53.842Z,25.63
2018-02-03T17:56:31.633Z,35.20
2018-02-03T17:59:14.860Z,34.40
2018-02-03T18:01:48.370Z,24.97
2018-02-03T18:04:18.686Z,23.43
2018-02-03T18:06:53.739Z,28.93
2018-02-03T18:09:25.400Z,46.47
2018-02-03T18:11:59.909Z,23.33
2018-02-03T18:14:30.911Z,30.63
2018-02-03T18:17:03.034Z,35.53
2018-02-03T18:19:33.048Z,40.77
2018-02-03T18:22:27.770Z,77.10
2018-02-03T18:25:03.158Z,40.47
2018-02-03T18:27:37.246Z,67.23
2018-02-03T18:30:18.689Z,89.10
2018-02-03T18:32:56.910Z,51.27
2018-02-03T18:35:28.251Z,35.60
2018-02-03T18:38:01.683Z,36.70
2018-02-03T18:40:37.773Z,46.43
2018-02-03T18:43:12.419Z,41.17
2018-02-03T18:45:47.009Z,114.77
2018-02-03T18:48:17.177Z,155.37
2018-02-03T18:50:54.918Z,64.57
2018-02-03T18:53:25.429Z,54.27
2018-02-03T18:55:57.016Z,92.07
2018-02-03T18:58:28.088Z,35.80
2018-02-03T19:01:00.030Z,97.03
2018-02-03T19:03:34.036Z,40.70
2018-02-03T19:06:08.243Z,133.37
2018-02-03T19:08:40.595Z,207.70
2018-02-03T19:11:14.241Z,43.03
2018-02-03T19:13:46.706Z,106.20
2018-02-03T19:16:19.896Z,64.30
2018-02-03T19:18:56.045Z,83.27
2018-02-03T19:21:45.582Z,142.43
2018-02-03T19:24:31.249Z,64.47
2018-02-03T19:27:14.290Z,91.63
2018-02-03T19:29:45.731Z,69.37
2018-02-03T19:32:39.490Z,72.07
2018-02-03T19:35:11.929Z,270.43
2018-02-03T19:37:46.439Z,67.23
2018-02-03T19:40:22.589Z,148.83
2018-02-03T19:43:08.918Z,45.87
2018-02-03T19:45:54.399Z,81.80
2018-02-03T19:48:28.483Z,150.93
2018-02-03T19:51:07.400Z,219.87
2018-02-03T19:53:42.048Z,62.73
2018-02-03T19:56:14.839Z,93.70
2018-02-03T19:58:46.678Z,146.37
2018-02-03T20:01:26.168Z,432.23
2018-02-03T20:04:01.113Z,726.47
2018-02-03T20:06:37.282Z,138.47
2018-02-03T20:09:12.071Z,62.03
2018-02-03T20:11:45.264Z,54.07
2018-02-03T20:14:15.808Z,71.37
2018-02-03T20:16:54.678Z,86.63
2018-02-03T20:22:45.207Z,146.17
2018-02-03T20:25:30.157Z,109.87
2018-02-03T20:28:01.994Z,81.90
2018-02-03T20:30:33.236Z,102.33
2018-02-03T20:33:05.771Z,87.70
2018-02-03T20:35:42.652Z,89.03
2018-02-03T20:38:30.047Z,250.83
2018-02-03T20:41:01.915Z,48.27
2018-02-03T20:43:33.846Z,84.00
2018-02-03T20:46:08.272Z,86.77
2018-02-03T20:48:39.596Z,122.87
2018-02-03T20:51:11.133Z,116.90
2018-02-03T20:53:44.202Z,88.70
2018-02-03T20:56:14.540Z,92.13
2018-02-03T20:58:57.621Z,89.47
2018-02-03T21:01:35.152Z,76.97
2018-02-03T21:04:06.747Z,109.73
2018-02-03T21:06:42.422Z,210.73
2018-02-03T21:09:12.939Z,261.83
2018-02-03T21:11:50.260Z,76.03
2018-02-03T21:14:24.912Z,61.30
2018-02-03T21:17:02.498Z,132.60
2018-02-03T21:19:41.155Z,153.60
2018-02-03T21:22:14.028Z,393.93
2018-02-03T21:24:45.531Z,137.67
2018-02-03T21:27:19.500Z,104.97
2018-02-03T21:29:52.338Z,175.50
2018-02-03T21:32:26.085Z,101.87
2018-02-03T21:35:12.701Z,91.57
2018-02-03T21:37:46.693Z,122.87
2018-02-03T21:40:25.623Z,93.07
2018-02-03T21:43:07.384Z,96.80
2018-02-03T21:45:38.522Z,178.23
2018-02-03T21:48:11.214Z,89.17
2018-02-03T21:50:41.784Z,191.87
2018-02-03T21:53:16.724Z,225.07
2018-02-03T21:55:56.343Z,160.00
2018-02-03T21:58:30.775Z,398.47
2018-02-03T22:01:11.834Z,163.27
2018-02-03T22:03:43.234Z,293.50
2018-02-03T22:06:13.812Z,360.00
2018-02-03T22:08:44.390Z,150.93
2018-02-03T22:11:19.120Z,266.73
2018-02-03T22:13:52.403Z,121.73
2018-02-03T22:16:23.889Z,83.70
2018-02-03T22:18:55.445Z,93.20
2018-02-03T22:21:26.541Z,125.87
2018-02-03T22:23:57.400Z,376.83
2018-02-03T22:26:33.949Z,220.90
2018-02-03T22:29:06.548Z,93.90
2018-02-03T22:31:41.832Z,112.73
2018-02-03T22:34:14.914Z,110.17
2018-02-03T22:36:50.497Z,104.10
2018-02-03T22:39:21.191Z,235.13
2018-02-03T22:41:53.030Z,124.73
2018-02-03T22:44:23.027Z,80.93
2018-02-03T22:46:54.333Z,64.13
2018-02-03T22:49:30.375Z,83.50
2018-02-03T22:52:07.869Z,71.27
2018-02-03T22:54:44.679Z,115.20
2018-02-03T22:57:16.336Z,73.30
2018-02-03T22:59:51.359Z,115.60
2018-02-03T23:02:32.476Z,297.00
2018-02-03T23:05:03.533Z,97.93
2018-02-03T23:07:40.186Z,180.60
2018-02-03T23:10:20.760Z,219.73
2018-02-03T23:12:58.559Z,171.57
2018-02-03T23:15:34.730Z,74.27
2018-02-03T23:18:12.637Z,86.97
2018-02-03T23:20:47.556Z,146.33
2018-02-03T23:23:24.106Z,107.80
2018-02-03T23:26:08.767Z,177.93
2018-02-03T23:28:50.246Z,459.27
2018-02-03T23:31:22.869Z,294.97
2018-02-03T23:34:01.023Z,127.73
2018-02-03T23:36:41.362Z,266.37
2018-02-03T23:39:15.319Z,358.03
2018-02-03T23:41:48.593Z,461.93
2018-02-03T23:44:35.536Z,282.47
2018-02-03T23:47:11.645Z,85.43
2018-02-03T23:49:43.727Z,341.00
2018-02-03T23:52:20.052Z,131.33
2018-02-03T23:54:58.498Z,101.43
2018-02-03T23:57:33.188Z,155.50
